sensor_id;sensor_type;location;lat;lon;timestamp;P1;durP1;ratioP1;P2;durP2;ratioP2
56401;SDS011;42299;35.160;26.100;2023-05-16T00:00:07;11.95;;;3.83;;
56401;SDS011;42299;35.160;26.100;2023-05-16T00:01:30;12.45;;;4.43;;
56401;SDS011;42299;35.160;26.100;2023-05-16T00:02:54;11.63;;;4.00;;
56401;SDS011;42299;35.160;26.100;2023-05-16T00:04:16;9.23;;;3.38;;
56401;SDS011;42299;35.160;26.100;2023-05-16T00:05:41;8.43;;;3.65;;
56401;SDS011;42299;35.160;26.100;2023-05-16T00:07:02;13.25;;;3.78;;
56401;SDS011;42299;35.160;26.100;2023-05-16T00:08:24;9.75;;;3.80;;
56401;SDS011;42299;35.160;26.100;2023-05-16T00:09:47;10.02;;;3.75;;
56401;SDS011;42299;35.160;26.100;2023-05-16T00:11:08;10.50;;;3.75;;
56401;SDS011;42299;35.160;26.100;2023-05-16T00:12:30;12.80;;;4.15;;
56401;SDS011;42299;35.160;26.100;2023-05-16T00:13:52;9.27;;;3.60;;
56401;SDS011;42299;35.160;26.100;2023-05-16T00:15:15;11.82;;;3.92;;
56401;SDS011;42299;35.160;26.100;2023-05-16T00:16:37;10.50;;;4.20;;
56401;SDS011;42299;35.160;26.100;2023-05-16T00:18:01;9.77;;;3.80;;
56401;SDS011;42299;35.160;26.100;2023-05-16T00:19:23;8.27;;;3.13;;
56401;SDS011;42299;35.160;26.100;2023-05-16T00:20:48;11.88;;;3.38;;
56401;SDS011;42299;35.160;26.100;2023-05-16T00:22:11;9.15;;;3.78;;
56401;SDS011;42299;35.160;26.100;2023-05-16T00:23:33;10.15;;;2.88;;
56401;SDS011;42299;35.160;26.100;2023-05-16T00:24:55;9.45;;;3.17;;
56401;SDS011;42299;35.160;26.100;2023-05-16T00:26:17;11.77;;;3.92;;
56401;SDS011;42299;35.160;26.100;2023-05-16T00:27:39;10.23;;;3.53;;
56401;SDS011;42299;35.160;26.100;2023-05-16T00:29:02;11.75;;;3.10;;
56401;SDS011;42299;35.160;26.100;2023-05-16T00:30:26;10.95;;;4.00;;
56401;SDS011;42299;35.160;26.100;2023-05-16T00:31:47;7.97;;;3.30;;
56401;SDS011;42299;35.160;26.100;2023-05-16T00:33:11;9.90;;;4.10;;
56401;SDS011;42299;35.160;26.100;2023-05-16T00:34:34;11.45;;;3.35;;
56401;SDS011;42299;35.160;26.100;2023-05-16T00:35:56;9.73;;;3.42;;
56401;SDS011;42299;35.160;26.100;2023-05-16T00:37:19;10.27;;;3.67;;
56401;SDS011;42299;35.160;26.100;2023-05-16T00:38:41;12.75;;;3.42;;
56401;SDS011;42299;35.160;26.100;2023-05-16T00:40:03;9.57;;;3.65;;
56401;SDS011;42299;35.160;26.100;2023-05-16T00:41:26;14.77;;;3.72;;
56401;SDS011;42299;35.160;26.100;2023-05-16T00:42:49;6.93;;;3.85;;
56401;SDS011;42299;35.160;26.100;2023-05-16T00:44:10;11.57;;;3.38;;
56401;SDS011;42299;35.160;26.100;2023-05-16T00:45:33;9.75;;;3.35;;
56401;SDS011;42299;35.160;26.100;2023-05-16T00:46:54;11.60;;;4.13;;
56401;SDS011;42299;35.160;26.100;2023-05-16T00:48:17;11.45;;;3.92;;
56401;SDS011;42299;35.160;26.100;2023-05-16T00:49:39;14.68;;;3.88;;
56401;SDS011;42299;35.160;26.100;2023-05-16T00:51:03;11.90;;;3.35;;
56401;SDS011;42299;35.160;26.100;2023-05-16T00:52:29;10.82;;;3.55;;
56401;SDS011;42299;35.160;26.100;2023-05-16T00:53:53;10.45;;;3.25;;
56401;SDS011;42299;35.160;26.100;2023-05-16T00:55:17;8.85;;;3.40;;
56401;SDS011;42299;35.160;26.100;2023-05-16T00:56:40;11.75;;;3.95;;
56401;SDS011;42299;35.160;26.100;2023-05-16T00:58:03;18.17;;;4.00;;
56401;SDS011;42299;35.160;26.100;2023-05-16T00:59:25;9.35;;;3.70;;
56401;SDS011;42299;35.160;26.100;2023-05-16T01:00:48;8.82;;;2.97;;
56401;SDS011;42299;35.160;26.100;2023-05-16T01:02:12;14.02;;;4.13;;
56401;SDS011;42299;35.160;26.100;2023-05-16T01:03:35;8.95;;;2.95;;
56401;SDS011;42299;35.160;26.100;2023-05-16T01:04:59;11.43;;;3.45;;
56401;SDS011;42299;35.160;26.100;2023-05-16T01:06:23;15.68;;;3.92;;
56401;SDS011;42299;35.160;26.100;2023-05-16T01:07:45;11.82;;;3.10;;
56401;SDS011;42299;35.160;26.100;2023-05-16T01:09:06;10.30;;;4.38;;
56401;SDS011;42299;35.160;26.100;2023-05-16T01:10:31;8.38;;;3.05;;
56401;SDS011;42299;35.160;26.100;2023-05-16T01:12:01;11.52;;;3.33;;
56401;SDS011;42299;35.160;26.100;2023-05-16T01:13:35;11.43;;;3.58;;
56401;SDS011;42299;35.160;26.100;2023-05-16T01:15:07;10.15;;;3.17;;
56401;SDS011;42299;35.160;26.100;2023-05-16T01:16:35;13.02;;;4.22;;
56401;SDS011;42299;35.160;26.100;2023-05-16T01:18:02;12.45;;;3.60;;
56401;SDS011;42299;35.160;26.100;2023-05-16T01:19:34;11.60;;;3.75;;
56401;SDS011;42299;35.160;26.100;2023-05-16T01:21:07;9.48;;;3.25;;
56401;SDS011;42299;35.160;26.100;2023-05-16T01:22:37;9.93;;;3.47;;
56401;SDS011;42299;35.160;26.100;2023-05-16T01:24:18;13.27;;;4.50;;
56401;SDS011;42299;35.160;26.100;2023-05-16T01:25:53;7.45;;;3.10;;
56401;SDS011;42299;35.160;26.100;2023-05-16T01:27:19;11.88;;;3.58;;
56401;SDS011;42299;35.160;26.100;2023-05-16T01:28:45;11.82;;;3.78;;
56401;SDS011;42299;35.160;26.100;2023-05-16T01:30:12;10.05;;;2.95;;
56401;SDS011;42299;35.160;26.100;2023-05-16T01:31:35;10.85;;;3.50;;
56401;SDS011;42299;35.160;26.100;2023-05-16T01:32:57;10.82;;;3.65;;
56401;SDS011;42299;35.160;26.100;2023-05-16T01:34:19;9.65;;;3.22;;
56401;SDS011;42299;35.160;26.100;2023-05-16T01:35:42;8.43;;;2.85;;
56401;SDS011;42299;35.160;26.100;2023-05-16T01:37:15;11.15;;;3.40;;
56401;SDS011;42299;35.160;26.100;2023-05-16T01:38:43;11.07;;;3.40;;
56401;SDS011;42299;35.160;26.100;2023-05-16T01:40:15;12.25;;;3.50;;
56401;SDS011;42299;35.160;26.100;2023-05-16T01:41:46;12.93;;;4.25;;
56401;SDS011;42299;35.160;26.100;2023-05-16T01:43:17;9.32;;;3.38;;
56401;SDS011;42299;35.160;26.100;2023-05-16T01:44:45;8.48;;;3.13;;
56401;SDS011;42299;35.160;26.100;2023-05-16T01:46:15;11.25;;;3.60;;
56401;SDS011;42299;35.160;26.100;2023-05-16T01:47:40;10.77;;;3.17;;
56401;SDS011;42299;35.160;26.100;2023-05-16T01:49:09;10.68;;;3.47;;
56401;SDS011;42299;35.160;26.100;2023-05-16T01:50:38;12.73;;;3.63;;
56401;SDS011;42299;35.160;26.100;2023-05-16T01:52:06;9.73;;;3.20;;
56401;SDS011;42299;35.160;26.100;2023-05-16T01:53:35;13.23;;;3.78;;
56401;SDS011;42299;35.160;26.100;2023-05-16T01:54:59;8.55;;;3.47;;
56401;SDS011;42299;35.160;26.100;2023-05-16T01:56:25;13.82;;;4.07;;
56401;SDS011;42299;35.160;26.100;2023-05-16T01:57:50;9.70;;;3.13;;
56401;SDS011;42299;35.160;26.100;2023-05-16T01:59:14;10.75;;;3.50;;
56401;SDS011;42299;35.160;26.100;2023-05-16T02:00:37;9.65;;;3.17;;
56401;SDS011;42299;35.160;26.100;2023-05-16T02:01:59;10.02;;;3.22;;
56401;SDS011;42299;35.160;26.100;2023-05-16T02:03:21;11.50;;;3.90;;
56401;SDS011;42299;35.160;26.100;2023-05-16T02:04:44;14.95;;;4.47;;
56401;SDS011;42299;35.160;26.100;2023-05-16T02:06:09;10.02;;;3.58;;
56401;SDS011;42299;35.160;26.100;2023-05-16T02:07:30;8.13;;;3.22;;
56401;SDS011;42299;35.160;26.100;2023-05-16T02:08:52;10.68;;;4.00;;
56401;SDS011;42299;35.160;26.100;2023-05-16T02:10:15;8.77;;;3.63;;
56401;SDS011;42299;35.160;26.100;2023-05-16T02:11:36;11.00;;;3.70;;
56401;SDS011;42299;35.160;26.100;2023-05-16T02:12:59;10.40;;;3.60;;
56401;SDS011;42299;35.160;26.100;2023-05-16T02:14:22;10.60;;;4.10;;
56401;SDS011;42299;35.160;26.100;2023-05-16T02:15:45;11.45;;;4.38;;
56401;SDS011;42299;35.160;26.100;2023-05-16T02:17:06;10.52;;;3.78;;
56401;SDS011;42299;35.160;26.100;2023-05-16T02:18:29;9.20;;;3.88;;
56401;SDS011;42299;35.160;26.100;2023-05-16T02:19:52;7.35;;;3.85;;
56401;SDS011;42299;35.160;26.100;2023-05-16T02:21:15;11.38;;;3.97;;
56401;SDS011;42299;35.160;26.100;2023-05-16T02:22:36;9.38;;;4.10;;
56401;SDS011;42299;35.160;26.100;2023-05-16T02:23:59;11.00;;;3.60;;
56401;SDS011;42299;35.160;26.100;2023-05-16T02:25:21;7.50;;;3.63;;
56401;SDS011;42299;35.160;26.100;2023-05-16T02:26:44;9.00;;;3.83;;
56401;SDS011;42299;35.160;26.100;2023-05-16T02:28:05;8.48;;;4.25;;
56401;SDS011;42299;35.160;26.100;2023-05-16T02:29:29;7.57;;;3.83;;
56401;SDS011;42299;35.160;26.100;2023-05-16T02:30:55;9.32;;;4.00;;
56401;SDS011;42299;35.160;26.100;2023-05-16T02:32:17;8.23;;;3.45;;
56401;SDS011;42299;35.160;26.100;2023-05-16T02:33:39;13.40;;;4.20;;
56401;SDS011;42299;35.160;26.100;2023-05-16T02:35:02;11.32;;;4.47;;
56401;SDS011;42299;35.160;26.100;2023-05-16T02:36:25;9.32;;;3.92;;
56401;SDS011;42299;35.160;26.100;2023-05-16T02:37:46;13.77;;;4.15;;
56401;SDS011;42299;35.160;26.100;2023-05-16T02:39:09;11.57;;;3.80;;
56401;SDS011;42299;35.160;26.100;2023-05-16T02:40:30;7.25;;;4.07;;
56401;SDS011;42299;35.160;26.100;2023-05-16T02:41:53;13.70;;;4.03;;
56401;SDS011;42299;35.160;26.100;2023-05-16T02:43:15;10.80;;;3.72;;
56401;SDS011;42299;35.160;26.100;2023-05-16T02:44:38;11.13;;;4.20;;
56401;SDS011;42299;35.160;26.100;2023-05-16T02:46:00;8.82;;;3.97;;
56401;SDS011;42299;35.160;26.100;2023-05-16T02:47:24;8.52;;;3.70;;
56401;SDS011;42299;35.160;26.100;2023-05-16T02:48:46;9.38;;;3.90;;
56401;SDS011;42299;35.160;26.100;2023-05-16T02:50:08;11.43;;;4.18;;
56401;SDS011;42299;35.160;26.100;2023-05-16T02:51:31;9.32;;;4.45;;
56401;SDS011;42299;35.160;26.100;2023-05-16T02:52:53;11.18;;;4.63;;
56401;SDS011;42299;35.160;26.100;2023-05-16T02:54:16;9.13;;;4.25;;
56401;SDS011;42299;35.160;26.100;2023-05-16T02:55:38;10.27;;;3.92;;
56401;SDS011;42299;35.160;26.100;2023-05-16T02:57:00;9.82;;;4.20;;
56401;SDS011;42299;35.160;26.100;2023-05-16T02:58:21;10.75;;;4.45;;
56401;SDS011;42299;35.160;26.100;2023-05-16T02:59:45;10.40;;;4.38;;
56401;SDS011;42299;35.160;26.100;2023-05-16T03:01:07;9.43;;;3.80;;
56401;SDS011;42299;35.160;26.100;2023-05-16T03:02:30;10.32;;;3.67;;
56401;SDS011;42299;35.160;26.100;2023-05-16T03:03:53;10.27;;;3.95;;
56401;SDS011;42299;35.160;26.100;2023-05-16T03:05:16;9.32;;;3.85;;
56401;SDS011;42299;35.160;26.100;2023-05-16T03:06:38;12.15;;;4.38;;
56401;SDS011;42299;35.160;26.100;2023-05-16T03:08:01;8.25;;;3.80;;
56401;SDS011;42299;35.160;26.100;2023-05-16T03:09:22;9.82;;;3.78;;
56401;SDS011;42299;35.160;26.100;2023-05-16T03:10:45;10.52;;;3.95;;
56401;SDS011;42299;35.160;26.100;2023-05-16T03:12:07;10.43;;;4.18;;
56401;SDS011;42299;35.160;26.100;2023-05-16T03:13:30;10.93;;;4.32;;
56401;SDS011;42299;35.160;26.100;2023-05-16T03:14:54;10.13;;;4.40;;
56401;SDS011;42299;35.160;26.100;2023-05-16T03:16:16;10.65;;;4.45;;
56401;SDS011;42299;35.160;26.100;2023-05-16T03:17:39;12.68;;;3.83;;
56401;SDS011;42299;35.160;26.100;2023-05-16T03:19:01;8.73;;;4.35;;
56401;SDS011;42299;35.160;26.100;2023-05-16T03:20:23;8.82;;;4.20;;
56401;SDS011;42299;35.160;26.100;2023-05-16T03:21:46;8.60;;;4.55;;
56401;SDS011;42299;35.160;26.100;2023-05-16T03:23:09;8.77;;;4.20;;
56401;SDS011;42299;35.160;26.100;2023-05-16T03:24:30;7.82;;;4.50;;
56401;SDS011;42299;35.160;26.100;2023-05-16T03:25:52;8.95;;;4.57;;
56401;SDS011;42299;35.160;26.100;2023-05-16T03:27:14;9.05;;;4.10;;
56401;SDS011;42299;35.160;26.100;2023-05-16T03:28:37;9.68;;;3.90;;
56401;SDS011;42299;35.160;26.100;2023-05-16T03:29:59;12.75;;;4.45;;
56401;SDS011;42299;35.160;26.100;2023-05-16T03:31:22;9.50;;;4.10;;
56401;SDS011;42299;35.160;26.100;2023-05-16T03:32:44;7.93;;;4.05;;
56401;SDS011;42299;35.160;26.100;2023-05-16T03:34:06;10.55;;;4.63;;
56401;SDS011;42299;35.160;26.100;2023-05-16T03:35:28;8.38;;;3.72;;
56401;SDS011;42299;35.160;26.100;2023-05-16T03:36:50;11.85;;;4.18;;
56401;SDS011;42299;35.160;26.100;2023-05-16T03:38:12;10.02;;;4.03;;
56401;SDS011;42299;35.160;26.100;2023-05-16T03:39:37;9.65;;;4.50;;
56401;SDS011;42299;35.160;26.100;2023-05-16T03:40:59;9.90;;;4.43;;
56401;SDS011;42299;35.160;26.100;2023-05-16T03:42:21;13.02;;;4.30;;
56401;SDS011;42299;35.160;26.100;2023-05-16T03:43:43;10.48;;;4.30;;
56401;SDS011;42299;35.160;26.100;2023-05-16T03:45:07;10.55;;;5.05;;
56401;SDS011;42299;35.160;26.100;2023-05-16T03:46:29;10.30;;;4.20;;
56401;SDS011;42299;35.160;26.100;2023-05-16T03:47:52;9.25;;;4.20;;
56401;SDS011;42299;35.160;26.100;2023-05-16T03:49:13;7.82;;;4.38;;
56401;SDS011;42299;35.160;26.100;2023-05-16T03:50:36;9.57;;;3.65;;
56401;SDS011;42299;35.160;26.100;2023-05-16T03:51:57;9.02;;;4.25;;
56401;SDS011;42299;35.160;26.100;2023-05-16T03:53:20;8.63;;;4.15;;
56401;SDS011;42299;35.160;26.100;2023-05-16T03:54:41;9.63;;;4.70;;
56401;SDS011;42299;35.160;26.100;2023-05-16T03:56:04;10.68;;;4.40;;
56401;SDS011;42299;35.160;26.100;2023-05-16T03:57:28;9.93;;;4.55;;
56401;SDS011;42299;35.160;26.100;2023-05-16T03:58:51;11.10;;;5.28;;
56401;SDS011;42299;35.160;26.100;2023-05-16T04:00:15;8.50;;;4.45;;
56401;SDS011;42299;35.160;26.100;2023-05-16T04:01:37;8.40;;;3.90;;
56401;SDS011;42299;35.160;26.100;2023-05-16T04:02:59;7.90;;;4.72;;
56401;SDS011;42299;35.160;26.100;2023-05-16T04:04:20;9.85;;;4.50;;
56401;SDS011;42299;35.160;26.100;2023-05-16T04:05:43;10.43;;;5.32;;
56401;SDS011;42299;35.160;26.100;2023-05-16T04:07:04;10.88;;;5.10;;
56401;SDS011;42299;35.160;26.100;2023-05-16T04:08:27;9.45;;;4.30;;
56401;SDS011;42299;35.160;26.100;2023-05-16T04:09:49;9.88;;;4.70;;
56401;SDS011;42299;35.160;26.100;2023-05-16T04:11:12;9.98;;;5.13;;
56401;SDS011;42299;35.160;26.100;2023-05-16T04:12:35;8.45;;;4.47;;
56401;SDS011;42299;35.160;26.100;2023-05-16T04:13:56;11.25;;;5.00;;
56401;SDS011;42299;35.160;26.100;2023-05-16T04:15:20;9.18;;;4.75;;
56401;SDS011;42299;35.160;26.100;2023-05-16T04:16:41;11.02;;;5.10;;
56401;SDS011;42299;35.160;26.100;2023-05-16T04:18:04;11.27;;;5.38;;
56401;SDS011;42299;35.160;26.100;2023-05-16T04:19:26;8.07;;;4.53;;
56401;SDS011;42299;35.160;26.100;2023-05-16T04:20:47;9.88;;;5.35;;
56401;SDS011;42299;35.160;26.100;2023-05-16T04:22:10;8.38;;;5.20;;
56401;SDS011;42299;35.160;26.100;2023-05-16T04:23:31;11.73;;;5.85;;
56401;SDS011;42299;35.160;26.100;2023-05-16T04:24:53;9.10;;;4.85;;
56401;SDS011;42299;35.160;26.100;2023-05-16T04:26:16;10.68;;;5.15;;
56401;SDS011;42299;35.160;26.100;2023-05-16T04:27:41;10.02;;;4.95;;
56401;SDS011;42299;35.160;26.100;2023-05-16T04:29:02;13.27;;;4.97;;
56401;SDS011;42299;35.160;26.100;2023-05-16T04:30:26;9.95;;;5.25;;
56401;SDS011;42299;35.160;26.100;2023-05-16T04:31:49;11.23;;;6.00;;
56401;SDS011;42299;35.160;26.100;2023-05-16T04:33:10;12.40;;;5.32;;
56401;SDS011;42299;35.160;26.100;2023-05-16T04:34:33;11.70;;;5.45;;
56401;SDS011;42299;35.160;26.100;2023-05-16T04:35:56;10.38;;;5.45;;
56401;SDS011;42299;35.160;26.100;2023-05-16T04:37:19;9.48;;;5.18;;
56401;SDS011;42299;35.160;26.100;2023-05-16T04:38:40;10.23;;;4.88;;
56401;SDS011;42299;35.160;26.100;2023-05-16T04:40:04;8.15;;;5.18;;
56401;SDS011;42299;35.160;26.100;2023-05-16T04:41:27;9.07;;;4.78;;
56401;SDS011;42299;35.160;26.100;2023-05-16T04:42:49;8.27;;;5.13;;
56401;SDS011;42299;35.160;26.100;2023-05-16T04:44:13;11.98;;;5.22;;
56401;SDS011;42299;35.160;26.100;2023-05-16T04:45:36;13.60;;;6.15;;
56401;SDS011;42299;35.160;26.100;2023-05-16T04:46:59;9.90;;;5.70;;
56401;SDS011;42299;35.160;26.100;2023-05-16T04:48:21;11.48;;;5.47;;
56401;SDS011;42299;35.160;26.100;2023-05-16T04:49:46;10.13;;;5.43;;
56401;SDS011;42299;35.160;26.100;2023-05-16T04:51:09;11.23;;;5.55;;
56401;SDS011;42299;35.160;26.100;2023-05-16T04:53:53;10.00;;;5.25;;
56401;SDS011;42299;35.160;26.100;2023-05-16T04:55:16;9.95;;;6.00;;
56401;SDS011;42299;35.160;26.100;2023-05-16T04:56:37;9.48;;;5.07;;
56401;SDS011;42299;35.160;26.100;2023-05-16T04:57:59;9.30;;;5.43;;
56401;SDS011;42299;35.160;26.100;2023-05-16T04:59:22;13.93;;;5.78;;
56401;SDS011;42299;35.160;26.100;2023-05-16T05:00:47;11.23;;;5.13;;
56401;SDS011;42299;35.160;26.100;2023-05-16T05:02:09;9.98;;;5.25;;
56401;SDS011;42299;35.160;26.100;2023-05-16T05:03:30;8.15;;;5.20;;
56401;SDS011;42299;35.160;26.100;2023-05-16T05:04:54;12.85;;;5.40;;
56401;SDS011;42299;35.160;26.100;2023-05-16T05:06:16;10.65;;;5.03;;
56401;SDS011;42299;35.160;26.100;2023-05-16T05:07:38;11.07;;;5.13;;
56401;SDS011;42299;35.160;26.100;2023-05-16T05:09:01;7.15;;;4.43;;
56401;SDS011;42299;35.160;26.100;2023-05-16T05:10:25;8.93;;;5.13;;
56401;SDS011;42299;35.160;26.100;2023-05-16T05:11:47;8.05;;;4.80;;
56401;SDS011;42299;35.160;26.100;2023-05-16T05:13:10;11.27;;;4.88;;
56401;SDS011;42299;35.160;26.100;2023-05-16T05:14:32;7.18;;;4.68;;
56401;SDS011;42299;35.160;26.100;2023-05-16T05:15:55;10.57;;;5.22;;
56401;SDS011;42299;35.160;26.100;2023-05-16T05:17:18;9.45;;;4.63;;
56401;SDS011;42299;35.160;26.100;2023-05-16T05:18:41;9.93;;;4.88;;
56401;SDS011;42299;35.160;26.100;2023-05-16T05:20:02;9.40;;;4.82;;
56401;SDS011;42299;35.160;26.100;2023-05-16T05:21:28;8.45;;;4.53;;
56401;SDS011;42299;35.160;26.100;2023-05-16T05:22:50;7.35;;;4.85;;
56401;SDS011;42299;35.160;26.100;2023-05-16T05:24:13;9.32;;;5.20;;
56401;SDS011;42299;35.160;26.100;2023-05-16T05:25:35;8.70;;;5.53;;
56401;SDS011;42299;35.160;26.100;2023-05-16T05:27:00;11.38;;;4.82;;
56401;SDS011;42299;35.160;26.100;2023-05-16T05:28:22;10.18;;;5.80;;
56401;SDS011;42299;35.160;26.100;2023-05-16T05:29:45;12.20;;;5.80;;
56401;SDS011;42299;35.160;26.100;2023-05-16T05:31:09;10.13;;;4.95;;
56401;SDS011;42299;35.160;26.100;2023-05-16T05:32:30;8.73;;;5.05;;
56401;SDS011;42299;35.160;26.100;2023-05-16T05:33:53;10.63;;;5.00;;
56401;SDS011;42299;35.160;26.100;2023-05-16T05:35:16;11.48;;;4.90;;
56401;SDS011;42299;35.160;26.100;2023-05-16T05:36:38;11.82;;;5.47;;
56401;SDS011;42299;35.160;26.100;2023-05-16T05:38:02;9.63;;;5.15;;
56401;SDS011;42299;35.160;26.100;2023-05-16T05:39:25;10.30;;;4.47;;
56401;SDS011;42299;35.160;26.100;2023-05-16T05:40:48;10.90;;;5.00;;
56401;SDS011;42299;35.160;26.100;2023-05-16T05:42:09;11.75;;;5.43;;
56401;SDS011;42299;35.160;26.100;2023-05-16T05:43:32;8.45;;;4.95;;
56401;SDS011;42299;35.160;26.100;2023-05-16T05:44:53;9.30;;;5.25;;
56401;SDS011;42299;35.160;26.100;2023-05-16T05:46:17;12.35;;;5.10;;
56401;SDS011;42299;35.160;26.100;2023-05-16T05:47:40;8.52;;;4.50;;
56401;SDS011;42299;35.160;26.100;2023-05-16T05:49:02;10.90;;;5.10;;
56401;SDS011;42299;35.160;26.100;2023-05-16T05:50:25;9.35;;;5.35;;
56401;SDS011;42299;35.160;26.100;2023-05-16T05:51:47;10.00;;;4.88;;
56401;SDS011;42299;35.160;26.100;2023-05-16T05:53:11;11.32;;;5.45;;
56401;SDS011;42299;35.160;26.100;2023-05-16T05:54:34;10.73;;;5.15;;
56401;SDS011;42299;35.160;26.100;2023-05-16T05:55:56;11.13;;;4.43;;
56401;SDS011;42299;35.160;26.100;2023-05-16T05:57:19;8.68;;;5.07;;
56401;SDS011;42299;35.160;26.100;2023-05-16T05:58:42;8.77;;;4.47;;
56401;SDS011;42299;35.160;26.100;2023-05-16T06:00:05;12.02;;;4.68;;
56401;SDS011;42299;35.160;26.100;2023-05-16T06:01:31;9.57;;;4.95;;
56401;SDS011;42299;35.160;26.100;2023-05-16T06:02:53;9.65;;;5.20;;
56401;SDS011;42299;35.160;26.100;2023-05-16T06:04:15;9.10;;;5.15;;
56401;SDS011;42299;35.160;26.100;2023-05-16T06:05:37;7.80;;;4.65;;
56401;SDS011;42299;35.160;26.100;2023-05-16T06:06:59;11.98;;;4.93;;
56401;SDS011;42299;35.160;26.100;2023-05-16T06:08:22;9.55;;;5.00;;
56401;SDS011;42299;35.160;26.100;2023-05-16T06:09:45;12.15;;;4.85;;
56401;SDS011;42299;35.160;26.100;2023-05-16T06:11:07;10.82;;;4.47;;
56401;SDS011;42299;35.160;26.100;2023-05-16T06:12:29;10.75;;;4.72;;
56401;SDS011;42299;35.160;26.100;2023-05-16T06:13:52;11.25;;;4.53;;
56401;SDS011;42299;35.160;26.100;2023-05-16T06:15:14;8.73;;;5.25;;
56401;SDS011;42299;35.160;26.100;2023-05-16T06:16:38;11.32;;;5.20;;
56401;SDS011;42299;35.160;26.100;2023-05-16T06:18:00;9.70;;;4.20;;
56401;SDS011;42299;35.160;26.100;2023-05-16T06:19:23;7.70;;;4.25;;
56401;SDS011;42299;35.160;26.100;2023-05-16T06:20:46;7.75;;;3.58;;
56401;SDS011;42299;35.160;26.100;2023-05-16T06:22:07;9.60;;;4.72;;
56401;SDS011;42299;35.160;26.100;2023-05-16T06:23:29;7.55;;;4.55;;
56401;SDS011;42299;35.160;26.100;2023-05-16T06:24:51;10.82;;;5.13;;
56401;SDS011;42299;35.160;26.100;2023-05-16T06:26:13;7.63;;;4.50;;
56401;SDS011;42299;35.160;26.100;2023-05-16T06:27:35;8.65;;;4.22;;
56401;SDS011;42299;35.160;26.100;2023-05-16T06:28:58;11.88;;;4.72;;
56401;SDS011;42299;35.160;26.100;2023-05-16T06:30:21;10.75;;;5.03;;
56401;SDS011;42299;35.160;26.100;2023-05-16T06:31:45;10.07;;;4.20;;
56401;SDS011;42299;35.160;26.100;2023-05-16T06:33:07;12.82;;;4.80;;
56401;SDS011;42299;35.160;26.100;2023-05-16T06:34:30;9.07;;;4.35;;
56401;SDS011;42299;35.160;26.100;2023-05-16T06:35:52;11.50;;;4.97;;
56401;SDS011;42299;35.160;26.100;2023-05-16T06:37:14;13.00;;;4.60;;
56401;SDS011;42299;35.160;26.100;2023-05-16T06:38:36;7.93;;;4.13;;
56401;SDS011;42299;35.160;26.100;2023-05-16T06:39:59;9.27;;;4.90;;
56401;SDS011;42299;35.160;26.100;2023-05-16T06:41:21;10.77;;;5.28;;
56401;SDS011;42299;35.160;26.100;2023-05-16T06:42:43;10.63;;;4.55;;
56401;SDS011;42299;35.160;26.100;2023-05-16T06:44:05;8.15;;;4.43;;
56401;SDS011;42299;35.160;26.100;2023-05-16T06:45:28;9.48;;;5.53;;
56401;SDS011;42299;35.160;26.100;2023-05-16T06:46:51;10.63;;;4.60;;
56401;SDS011;42299;35.160;26.100;2023-05-16T06:48:14;10.77;;;4.97;;
56401;SDS011;42299;35.160;26.100;2023-05-16T06:49:36;7.68;;;3.97;;
56401;SDS011;42299;35.160;26.100;2023-05-16T06:50:58;12.70;;;5.47;;
56401;SDS011;42299;35.160;26.100;2023-05-16T06:52:21;8.38;;;4.60;;
56401;SDS011;42299;35.160;26.100;2023-05-16T06:53:44;9.15;;;4.30;;
56401;SDS011;42299;35.160;26.100;2023-05-16T06:55:06;13.07;;;5.43;;
56401;SDS011;42299;35.160;26.100;2023-05-16T06:56:29;7.85;;;5.07;;
56401;SDS011;42299;35.160;26.100;2023-05-16T06:57:51;8.63;;;5.47;;
56401;SDS011;42299;35.160;26.100;2023-05-16T06:59:13;11.20;;;5.95;;
56401;SDS011;42299;35.160;26.100;2023-05-16T07:00:36;8.65;;;4.55;;
56401;SDS011;42299;35.160;26.100;2023-05-16T07:02:00;9.57;;;4.88;;
56401;SDS011;42299;35.160;26.100;2023-05-16T07:03:23;9.23;;;5.05;;
56401;SDS011;42299;35.160;26.100;2023-05-16T07:04:45;9.57;;;4.78;;
56401;SDS011;42299;35.160;26.100;2023-05-16T07:06:07;9.85;;;4.57;;
56401;SDS011;42299;35.160;26.100;2023-05-16T07:07:30;14.95;;;5.57;;
56401;SDS011;42299;35.160;26.100;2023-05-16T07:08:53;8.90;;;5.07;;
56401;SDS011;42299;35.160;26.100;2023-05-16T07:10:15;12.18;;;5.32;;
56401;SDS011;42299;35.160;26.100;2023-05-16T07:11:37;9.75;;;5.40;;
56401;SDS011;42299;35.160;26.100;2023-05-16T07:13:00;9.85;;;5.18;;
56401;SDS011;42299;35.160;26.100;2023-05-16T07:14:24;9.88;;;5.45;;
56401;SDS011;42299;35.160;26.100;2023-05-16T07:15:46;10.50;;;5.38;;
56401;SDS011;42299;35.160;26.100;2023-05-16T07:17:10;12.18;;;5.20;;
56401;SDS011;42299;35.160;26.100;2023-05-16T07:18:31;11.77;;;4.72;;
56401;SDS011;42299;35.160;26.100;2023-05-16T07:19:53;13.30;;;5.43;;
56401;SDS011;42299;35.160;26.100;2023-05-16T07:21:16;7.88;;;5.05;;
56401;SDS011;42299;35.160;26.100;2023-05-16T07:22:38;8.60;;;5.07;;
56401;SDS011;42299;35.160;26.100;2023-05-16T07:24:00;10.50;;;5.22;;
56401;SDS011;42299;35.160;26.100;2023-05-16T07:25:23;9.68;;;5.00;;
56401;SDS011;42299;35.160;26.100;2023-05-16T07:26:45;9.00;;;5.05;;
56401;SDS011;42299;35.160;26.100;2023-05-16T07:28:08;10.27;;;5.20;;
56401;SDS011;42299;35.160;26.100;2023-05-16T07:29:30;11.88;;;5.30;;
56401;SDS011;42299;35.160;26.100;2023-05-16T07:30:52;11.48;;;5.22;;
56401;SDS011;42299;35.160;26.100;2023-05-16T07:32:19;7.93;;;4.90;;
56401;SDS011;42299;35.160;26.100;2023-05-16T07:33:42;8.98;;;5.75;;
56401;SDS011;42299;35.160;26.100;2023-05-16T07:35:04;10.70;;;5.13;;
56401;SDS011;42299;35.160;26.100;2023-05-16T07:36:27;8.02;;;4.20;;
56401;SDS011;42299;35.160;26.100;2023-05-16T07:37:50;10.93;;;5.03;;
56401;SDS011;42299;35.160;26.100;2023-05-16T07:39:13;12.20;;;5.35;;
56401;SDS011;42299;35.160;26.100;2023-05-16T07:40:35;12.35;;;5.55;;
56401;SDS011;42299;35.160;26.100;2023-05-16T07:41:58;9.10;;;5.13;;
56401;SDS011;42299;35.160;26.100;2023-05-16T07:43:20;7.97;;;5.07;;
56401;SDS011;42299;35.160;26.100;2023-05-16T07:44:42;9.70;;;4.93;;
56401;SDS011;42299;35.160;26.100;2023-05-16T07:46:05;10.68;;;5.50;;
56401;SDS011;42299;35.160;26.100;2023-05-16T07:47:29;9.77;;;5.18;;
56401;SDS011;42299;35.160;26.100;2023-05-16T07:48:52;11.70;;;5.22;;
56401;SDS011;42299;35.160;26.100;2023-05-16T07:50:14;8.70;;;5.10;;
56401;SDS011;42299;35.160;26.100;2023-05-16T07:51:36;11.35;;;5.70;;
56401;SDS011;42299;35.160;26.100;2023-05-16T07:52:59;11.35;;;5.75;;
56401;SDS011;42299;35.160;26.100;2023-05-16T07:54:22;12.48;;;5.30;;
56401;SDS011;42299;35.160;26.100;2023-05-16T07:55:44;10.52;;;5.30;;
56401;SDS011;42299;35.160;26.100;2023-05-16T07:57:06;12.27;;;5.05;;
56401;SDS011;42299;35.160;26.100;2023-05-16T07:58:29;12.18;;;5.78;;
56401;SDS011;42299;35.160;26.100;2023-05-16T07:59:51;12.32;;;5.78;;
56401;SDS011;42299;35.160;26.100;2023-05-16T08:01:14;12.07;;;5.72;;
56401;SDS011;42299;35.160;26.100;2023-05-16T08:02:38;11.75;;;5.40;;
56401;SDS011;42299;35.160;26.100;2023-05-16T08:04:01;9.80;;;5.60;;
56401;SDS011;42299;35.160;26.100;2023-05-16T08:05:23;10.57;;;5.90;;
56401;SDS011;42299;35.160;26.100;2023-05-16T08:06:46;9.00;;;5.68;;
56401;SDS011;42299;35.160;26.100;2023-05-16T08:08:07;11.40;;;5.78;;
56401;SDS011;42299;35.160;26.100;2023-05-16T08:09:29;11.25;;;6.78;;
56401;SDS011;42299;35.160;26.100;2023-05-16T08:10:52;8.57;;;5.70;;